createdAt,value
2022-10-19T00:01:03.667Z,2.40
2022-10-19T00:03:33.450Z,1.97
2022-10-19T00:06:01.683Z,1.77
2022-10-19T00:08:29.489Z,2.00
2022-10-19T00:10:57.201Z,2.50
2022-10-19T00:13:24.987Z,2.03
2022-10-19T00:15:52.714Z,1.83
2022-10-19T00:18:20.500Z,2.50
2022-10-19T00:20:49.545Z,2.73
2022-10-19T00:23:17.185Z,2.07
2022-10-19T00:25:55.161Z,1.90
2022-10-19T00:28:22.939Z,2.10
2022-10-19T00:30:50.705Z,1.90
2022-10-19T00:33:22.477Z,2.23
2022-10-19T00:35:53.232Z,2.50
2022-10-19T00:38:22.154Z,2.20
2022-10-19T00:40:50.578Z,2.00
2022-10-19T00:43:20.733Z,2.23
2022-10-19T00:45:49.100Z,2.00
2022-10-19T00:48:20.701Z,2.37
2022-10-19T00:50:50.311Z,2.60
2022-10-19T00:53:19.659Z,2.27
2022-10-19T00:55:47.656Z,2.20
2022-10-19T00:58:15.626Z,1.90
2022-10-19T01:00:43.438Z,2.10
2022-10-19T01:03:13.244Z,2.10
2022-10-19T01:05:42.330Z,2.20
2022-10-19T01:08:11.086Z,1.87
2022-10-19T01:10:47.661Z,2.40
2022-10-19T01:13:32.566Z,2.33
2022-10-19T01:16:06.377Z,2.10
2022-10-19T01:18:40.752Z,2.93
2022-10-19T01:21:21.656Z,1.90
2022-10-19T01:24:27.391Z,2.40
2022-10-19T01:27:28.718Z,1.77
2022-10-19T01:30:07.281Z,2.27
2022-10-19T01:32:45.335Z,2.60
2022-10-19T01:35:22.770Z,1.67
2022-10-19T01:37:56.480Z,2.10
2022-10-19T01:40:31.907Z,2.20
2022-10-19T01:43:03.792Z,2.10
2022-10-19T01:45:40.587Z,2.37
2022-10-19T01:48:15.195Z,2.10
2022-10-19T01:50:48.904Z,2.13
2022-10-19T01:53:19.034Z,2.03
2022-10-19T01:55:51.089Z,2.00
2022-10-19T01:58:29.099Z,2.07
2022-10-19T02:01:02.577Z,2.10
2022-10-19T02:03:30.728Z,2.57
2022-10-19T02:05:59.519Z,2.00
2022-10-19T02:08:31.372Z,2.07
2022-10-19T02:11:00.293Z,2.40
2022-10-19T02:13:30.297Z,2.10
2022-10-19T02:16:02.461Z,2.53
2022-10-19T02:18:33.968Z,2.33
2022-10-19T02:21:02.922Z,3.10
2022-10-19T02:23:31.028Z,2.13
2022-10-19T02:25:59.741Z,2.90
2022-10-19T02:28:29.143Z,2.53
2022-10-19T02:30:57.399Z,2.27
2022-10-19T02:33:26.861Z,2.27
2022-10-19T02:35:54.773Z,2.20
2022-10-19T02:38:24.651Z,2.10
2022-10-19T02:41:01.023Z,2.27
2022-10-19T02:43:32.869Z,2.20
2022-10-19T02:46:06.780Z,2.37
2022-10-19T02:48:38.980Z,2.47
2022-10-19T02:51:06.992Z,2.20
2022-10-19T02:53:34.650Z,2.27
2022-10-19T02:56:02.300Z,2.30
2022-10-19T02:58:29.972Z,2.30
2022-10-19T03:00:57.853Z,2.27
2022-10-19T03:03:25.812Z,2.10
2022-10-19T03:05:56.536Z,2.57
2022-10-19T03:08:24.248Z,2.00
2022-10-19T03:10:51.962Z,2.40
2022-10-19T03:13:19.636Z,2.17
2022-10-19T03:15:47.512Z,2.10
2022-10-19T03:18:15.199Z,2.00
2022-10-19T03:20:42.921Z,2.33
2022-10-19T03:23:11.976Z,2.40
2022-10-19T03:25:39.714Z,2.30
2022-10-19T03:28:07.466Z,2.17
2022-10-19T03:30:35.125Z,2.27
2022-10-19T03:33:02.812Z,2.90
2022-10-19T03:35:30.468Z,2.23
2022-10-19T03:37:58.198Z,2.30
2022-10-19T03:40:27.439Z,2.60
2022-10-19T03:42:55.223Z,2.37
2022-10-19T03:45:22.898Z,2.30
2022-10-19T03:47:50.756Z,2.40
2022-10-19T03:50:19.051Z,2.40
2022-10-19T03:52:46.692Z,2.73
2022-10-19T03:55:14.366Z,2.20
2022-10-19T03:57:44.079Z,1.97
2022-10-19T04:00:13.341Z,2.43
2022-10-19T04:02:41.011Z,2.43
2022-10-19T04:05:09.417Z,2.73
2022-10-19T04:07:37.169Z,2.47
2022-10-19T04:10:05.361Z,2.10
2022-10-19T04:12:33.043Z,2.23
2022-10-19T04:15:02.097Z,2.73
2022-10-19T04:17:29.777Z,2.10
2022-10-19T04:19:57.444Z,2.47
2022-10-19T04:22:25.090Z,2.10
2022-10-19T04:24:52.712Z,2.43
2022-10-19T04:27:20.413Z,1.87
2022-10-19T04:29:48.073Z,2.23
2022-10-19T04:32:17.176Z,2.20
2022-10-19T04:34:44.909Z,2.40
2022-10-19T04:37:12.516Z,2.40
2022-10-19T04:39:43.068Z,2.73
2022-10-19T04:42:10.764Z,2.57
2022-10-19T04:44:38.897Z,2.40
2022-10-19T04:47:06.712Z,2.33
2022-10-19T04:49:35.747Z,2.23
2022-10-19T04:52:03.441Z,2.60
2022-10-19T04:54:31.136Z,2.70
2022-10-19T04:56:58.851Z,2.87
2022-10-19T04:59:26.563Z,2.30
2022-10-19T05:01:54.274Z,2.37
2022-10-19T05:04:21.996Z,2.13
2022-10-19T05:06:51.015Z,2.00
2022-10-19T05:09:18.710Z,2.47
2022-10-19T05:11:46.450Z,2.80
2022-10-19T05:14:14.611Z,2.10
2022-10-19T05:16:42.336Z,1.70
2022-10-19T05:19:14.674Z,1.97
2022-10-19T05:21:42.337Z,2.20
2022-10-19T05:24:14.262Z,2.57
2022-10-19T05:26:41.995Z,2.37
2022-10-19T05:29:12.777Z,2.57
2022-10-19T05:31:41.063Z,2.60
2022-10-19T05:34:08.924Z,2.40
2022-10-19T05:36:38.879Z,1.93
2022-10-19T05:39:09.077Z,2.23
2022-10-19T05:41:38.349Z,2.30
2022-10-19T05:44:06.903Z,2.33
2022-10-19T05:46:35.356Z,2.00
2022-10-19T05:49:03.107Z,2.00
2022-10-19T05:51:30.918Z,2.40
2022-10-19T05:53:58.723Z,2.10
2022-10-19T05:56:28.036Z,3.20
2022-10-19T05:58:58.599Z,2.93
2022-10-19T06:01:27.836Z,2.50
2022-10-19T06:03:57.523Z,2.30
2022-10-19T06:06:26.303Z,2.17
2022-10-19T06:08:55.321Z,2.20
2022-10-19T06:11:24.981Z,2.17
2022-10-19T06:13:55.409Z,1.97
2022-10-19T06:16:25.594Z,2.53
2022-10-19T06:18:54.525Z,2.10
2022-10-19T06:21:23.687Z,2.20
2022-10-19T06:23:51.922Z,2.50
2022-10-19T06:26:20.788Z,2.40
2022-10-19T06:28:49.478Z,2.13
2022-10-19T06:31:18.078Z,2.60
2022-10-19T06:33:49.446Z,2.10
2022-10-19T06:36:19.959Z,1.87
2022-10-19T06:38:48.199Z,2.70
2022-10-19T06:41:16.418Z,2.33
2022-10-19T06:43:44.670Z,2.70
2022-10-19T06:46:17.566Z,2.30
2022-10-19T06:48:45.700Z,2.53
2022-10-19T06:51:14.924Z,3.07
2022-10-19T06:53:44.187Z,2.13
2022-10-19T06:56:12.094Z,2.57
2022-10-19T06:58:40.352Z,2.43
2022-10-19T07:01:09.437Z,2.17
2022-10-19T07:03:37.879Z,3.00
2022-10-19T07:06:08.190Z,3.37
2022-10-19T07:08:38.798Z,3.43
2022-10-19T07:11:08.884Z,2.77
2022-10-19T07:13:36.907Z,2.63
2022-10-19T07:16:07.596Z,2.40
2022-10-19T07:18:36.908Z,2.30
2022-10-19T07:21:07.609Z,2.73
2022-10-19T07:23:38.718Z,2.67
2022-10-19T07:26:07.765Z,2.63
2022-10-19T07:28:35.518Z,3.07
2022-10-19T07:31:07.990Z,2.57
2022-10-19T07:33:36.117Z,2.70
2022-10-19T07:36:05.905Z,3.00
2022-10-19T07:38:34.429Z,2.83
2022-10-19T07:41:05.689Z,2.40
2022-10-19T07:43:33.876Z,2.37
2022-10-19T07:46:03.297Z,2.80
2022-10-19T07:48:31.066Z,2.13
2022-10-19T07:50:59.043Z,2.47
2022-10-19T07:53:26.772Z,2.50
2022-10-19T07:55:54.505Z,2.15
2022-10-19T07:58:23.663Z,2.35
2022-10-19T08:00:51.444Z,2.40
2022-10-19T08:04:13.730Z,2.15
2022-10-19T08:06:08.526Z,2.80
2022-10-19T08:08:37.445Z,2.58
2022-10-19T08:11:08.191Z,2.50
2022-10-19T08:13:37.441Z,2.65
2022-10-19T08:16:06.199Z,2.78
2022-10-19T08:18:33.948Z,2.67
2022-10-19T08:21:03.546Z,2.60
2022-10-19T08:23:31.309Z,2.80
2022-10-19T08:25:59.342Z,2.92
2022-10-19T08:28:27.092Z,2.85
2022-10-19T08:30:58.906Z,2.55
2022-10-19T08:33:27.852Z,2.30
2022-10-19T08:35:55.635Z,2.58
2022-10-19T08:38:23.385Z,2.55
2022-10-19T08:40:51.139Z,2.40
2022-10-19T08:43:29.670Z,2.78
2022-10-19T08:46:12.664Z,2.40
2022-10-19T08:48:43.066Z,1.80
2022-10-19T08:51:14.162Z,2.72
2022-10-19T08:53:51.426Z,2.10
2022-10-19T08:59:27.114Z,2.30
2022-10-19T09:01:59.922Z,2.17
2022-10-19T09:04:31.773Z,1.98
2022-10-19T09:07:13.969Z,1.87
2022-10-19T09:12:25.801Z,2.13
2022-10-19T09:14:59.307Z,2.00
2022-10-19T09:17:29.854Z,1.97
2022-10-19T09:19:57.938Z,2.13
2022-10-19T09:22:30.533Z,2.13
2022-10-19T09:25:04.049Z,2.43
2022-10-19T09:27:39.867Z,2.13
2022-10-19T09:30:16.611Z,1.80
2022-10-19T09:32:45.860Z,2.03
2022-10-19T09:35:25.295Z,1.87
2022-10-19T09:37:53.475Z,2.53
2022-10-19T09:40:24.796Z,2.07
2022-10-19T09:42:57.189Z,2.13
2022-10-19T09:45:35.502Z,2.27
2022-10-19T09:48:15.127Z,1.70
2022-10-19T09:50:44.808Z,2.17
2022-10-19T09:53:20.455Z,2.07
2022-10-19T09:55:52.472Z,2.00
2022-10-19T09:58:21.339Z,2.03
2022-10-19T10:00:51.539Z,2.50
2022-10-19T10:03:29.634Z,2.20
2022-10-19T10:05:59.604Z,2.20
2022-10-19T10:08:31.126Z,2.33
2022-10-19T10:11:07.794Z,2.27
2022-10-19T10:13:38.936Z,2.10
2022-10-19T10:16:09.708Z,2.37
2022-10-19T10:18:46.536Z,2.23
2022-10-19T10:21:25.307Z,2.27
2022-10-19T10:24:02.465Z,2.60
2022-10-19T10:26:30.698Z,2.27
2022-10-19T10:29:01.324Z,2.00
2022-10-19T10:31:31.163Z,2.10
2022-10-19T10:34:11.020Z,2.33
2022-10-19T10:36:52.391Z,2.07
2022-10-19T10:39:20.261Z,2.40
2022-10-19T10:41:49.758Z,2.47
2022-10-19T10:44:21.490Z,1.93
2022-10-19T10:46:54.895Z,2.23
2022-10-19T10:49:27.818Z,2.50
2022-10-19T10:51:57.751Z,2.30
2022-10-19T10:54:28.124Z,2.80
2022-10-19T10:57:06.716Z,2.30
2022-10-19T10:59:44.632Z,2.80
2022-10-19T11:02:24.078Z,2.30
2022-10-19T11:04:58.620Z,2.53
2022-10-19T11:07:28.935Z,2.33
2022-10-19T11:09:59.603Z,2.23
2022-10-19T11:12:35.561Z,2.30
2022-10-19T11:15:13.111Z,2.30
2022-10-19T11:17:50.952Z,2.53
2022-10-19T11:20:20.458Z,2.53
2022-10-19T11:22:53.951Z,2.20
2022-10-19T11:25:31.113Z,2.07
2022-10-19T11:28:15.262Z,3.07
2022-10-19T11:30:55.193Z,2.57
2022-10-19T11:33:39.047Z,2.43
2022-10-19T11:36:19.074Z,2.70
2022-10-19T11:38:59.797Z,2.43
2022-10-19T11:41:33.198Z,2.23
2022-10-19T11:44:13.776Z,2.60
2022-10-19T11:46:49.847Z,2.37
2022-10-19T11:49:30.879Z,2.50
2022-10-19T11:52:07.084Z,2.60
2022-10-19T11:54:46.056Z,2.47
2022-10-19T11:57:20.426Z,2.40
2022-10-19T12:00:13.907Z,2.40
2022-10-19T12:02:59.334Z,2.20
2022-10-19T12:05:34.350Z,2.87
2022-10-19T12:08:21.162Z,2.63
2022-10-19T12:11:00.099Z,2.30
2022-10-19T12:13:32.809Z,2.50
2022-10-19T12:16:01.451Z,2.00
2022-10-19T12:18:36.423Z,2.53
2022-10-19T12:21:09.807Z,2.53
2022-10-19T12:23:40.975Z,2.20
2022-10-19T12:26:11.781Z,2.42
2022-10-19T12:28:43.394Z,2.23
2022-10-19T12:31:12.043Z,2.77
2022-10-19T12:33:47.320Z,2.07
2022-10-19T12:36:27.508Z,2.10
2022-10-19T12:39:03.956Z,2.53
2022-10-19T12:41:45.333Z,3.03
2022-10-19T12:44:27.467Z,2.10
2022-10-19T12:47:01.072Z,2.43
2022-10-19T12:49:48.832Z,2.07
2022-10-19T12:52:33.865Z,2.83
2022-10-19T12:55:24.581Z,2.40
2022-10-19T12:58:01.377Z,2.30
2022-10-19T13:00:31.947Z,2.40
2022-10-19T13:03:03.190Z,3.13
2022-10-19T13:05:32.706Z,2.87
2022-10-19T13:08:03.477Z,1.90
2022-10-19T13:10:33.605Z,2.37
2022-10-19T13:13:03.022Z,2.03
2022-10-19T13:15:52.353Z,1.87
2022-10-19T13:19:08.318Z,2.03
2022-10-19T13:21:48.148Z,1.93
2022-10-19T13:24:37.832Z,1.90
2022-10-19T13:27:39.381Z,1.90
2022-10-19T13:30:47.493Z,2.17
2022-10-19T13:33:45.194Z,2.17
2022-10-19T13:36:13.965Z,1.60
2022-10-19T13:38:44.287Z,2.37
2022-10-19T13:41:21.574Z,1.80
2022-10-19T13:43:59.090Z,1.50
2022-10-19T13:46:43.835Z,1.93
2022-10-19T13:49:48.740Z,1.73
2022-10-19T13:52:54.806Z,1.60
2022-10-19T13:55:47.244Z,1.70
2022-10-19T13:58:47.778Z,2.10
2022-10-19T14:01:28.019Z,1.93
2022-10-19T14:04:13.322Z,2.10
2022-10-19T14:06:47.071Z,2.00
2022-10-19T14:09:31.128Z,2.03
2022-10-19T14:12:07.260Z,2.10
2022-10-19T14:17:20.267Z,1.80
2022-10-19T14:19:52.358Z,2.33
2022-10-19T14:22:25.803Z,3.37
2022-10-19T14:25:00.589Z,2.00
2022-10-19T14:27:28.434Z,1.93
2022-10-19T14:29:56.259Z,1.63
2022-10-19T14:32:26.976Z,2.10
2022-10-19T14:35:02.127Z,1.77
2022-10-19T14:37:29.905Z,1.90
2022-10-19T14:40:07.378Z,1.80
2022-10-19T14:42:43.835Z,2.37
2022-10-19T14:45:15.552Z,1.90
2022-10-19T14:47:57.268Z,1.80
2022-10-19T14:50:35.150Z,1.67
2022-10-19T14:53:11.109Z,2.20
2022-10-19T14:55:42.336Z,2.00
2022-10-19T14:58:16.980Z,2.30
2022-10-19T15:00:48.634Z,2.03
2022-10-19T15:03:23.604Z,1.87
2022-10-19T15:05:57.365Z,2.03
2022-10-19T15:08:33.821Z,1.60
2022-10-19T15:11:01.957Z,1.80
2022-10-19T15:13:34.556Z,1.70
2022-10-19T15:16:02.296Z,1.67
2022-10-19T15:18:48.890Z,1.77
2022-10-19T15:21:21.074Z,1.90
2022-10-19T15:23:50.551Z,1.80
2022-10-19T15:26:21.515Z,1.60
2022-10-19T15:28:50.270Z,1.90
2022-10-19T15:31:20.405Z,2.20
2022-10-19T15:33:51.422Z,4.17
2022-10-19T15:36:22.260Z,6.47
2022-10-19T15:39:11.495Z,4.23
2022-10-19T15:41:47.944Z,8.77
2022-10-19T15:44:33.086Z,4.93
2022-10-19T15:47:24.247Z,1.70
2022-10-19T15:49:58.245Z,1.90
2022-10-19T15:52:30.418Z,2.20
2022-10-19T15:54:59.874Z,2.00
2022-10-19T15:57:31.388Z,1.90
2022-10-19T16:00:01.449Z,2.03
2022-10-19T16:02:29.354Z,1.70
2022-10-19T16:04:57.212Z,2.37
2022-10-19T16:07:29.620Z,2.43
2022-10-19T16:09:57.916Z,2.10
2022-10-19T16:12:27.146Z,2.83
2022-10-19T16:14:55.368Z,2.60
2022-10-19T16:17:23.590Z,2.00
2022-10-19T16:19:51.427Z,2.30
2022-10-19T16:22:19.247Z,2.27
2022-10-19T16:24:48.600Z,2.40
2022-10-19T16:27:17.042Z,2.20
2022-10-19T16:29:45.457Z,2.97
2022-10-19T16:32:13.129Z,3.83
2022-10-19T16:34:41.322Z,4.40
2022-10-19T16:37:09.117Z,3.80
2022-10-19T16:39:36.907Z,3.90
2022-10-19T16:42:06.217Z,3.47
2022-10-19T16:44:34.177Z,3.57
2022-10-19T16:47:02.056Z,3.33
2022-10-19T16:49:30.067Z,3.00
2022-10-19T16:51:57.912Z,2.93
2022-10-19T16:54:26.949Z,2.53
2022-10-19T16:56:55.832Z,2.57
2022-10-19T16:59:26.006Z,2.03
2022-10-19T17:01:53.967Z,1.83
2022-10-19T17:04:22.086Z,2.33
2022-10-19T17:06:50.061Z,2.37
2022-10-19T17:12:06.515Z,2.50
2022-10-19T17:14:36.481Z,2.50
2022-10-19T17:17:04.370Z,6.73
2022-10-19T17:19:32.277Z,9.63
2022-10-19T17:22:01.864Z,9.33
2022-10-19T17:24:30.617Z,9.50
2022-10-19T17:26:58.496Z,4.90
2022-10-19T17:29:26.302Z,3.10
2022-10-19T17:31:55.538Z,3.30
2022-10-19T17:34:23.351Z,3.40
2022-10-19T17:36:51.186Z,3.03
2022-10-19T17:39:25.780Z,2.73
2022-10-19T17:42:01.241Z,2.67
2022-10-19T17:44:30.498Z,2.70
2022-10-19T17:47:00.615Z,2.33
2022-10-19T17:49:29.790Z,2.47
2022-10-19T17:51:57.573Z,2.30
2022-10-19T17:54:25.521Z,2.37
2022-10-19T17:56:53.358Z,2.50
2022-10-19T17:59:30.160Z,2.20
2022-10-19T18:02:00.009Z,2.17
2022-10-19T18:04:27.832Z,2.87
2022-10-19T18:06:55.771Z,2.10
2022-10-19T18:09:23.528Z,2.40
2022-10-19T18:11:51.228Z,2.10
2022-10-19T18:14:18.987Z,2.10
2022-10-19T18:16:48.805Z,2.20
2022-10-19T18:19:18.249Z,2.10
2022-10-19T18:21:49.161Z,4.10
2022-10-19T18:24:20.022Z,5.53
2022-10-19T18:26:49.000Z,4.87
2022-10-19T18:29:18.961Z,4.23
2022-10-19T18:31:51.234Z,4.23
2022-10-19T18:34:22.208Z,3.27
2022-10-19T18:36:50.563Z,3.00
2022-10-19T18:39:19.078Z,2.97
2022-10-19T18:41:48.271Z,2.73
2022-10-19T18:44:16.017Z,2.83
2022-10-19T18:46:44.535Z,2.80
2022-10-19T18:49:12.914Z,2.70
2022-10-19T18:51:42.071Z,2.53
2022-10-19T18:54:10.122Z,3.13
2022-10-19T18:56:38.022Z,3.77
2022-10-19T18:59:06.318Z,3.90
2022-10-19T19:01:34.264Z,3.70
2022-10-19T19:04:07.673Z,3.40
2022-10-19T19:06:36.881Z,3.60
2022-10-19T19:09:09.388Z,4.33
2022-10-19T19:11:40.766Z,4.87
2022-10-19T19:14:13.559Z,4.50
2022-10-19T19:16:43.570Z,4.43
2022-10-19T19:19:13.410Z,4.00
2022-10-19T19:21:43.985Z,3.70
2022-10-19T19:24:16.194Z,3.87
2022-10-19T19:26:48.327Z,4.03
2022-10-19T19:29:16.783Z,3.77
2022-10-19T19:31:45.146Z,3.43
2022-10-19T19:34:13.009Z,3.70
2022-10-19T19:36:47.007Z,3.50
2022-10-19T19:39:18.856Z,3.07
2022-10-19T19:41:47.684Z,2.97
2022-10-19T19:44:15.713Z,2.80
2022-10-19T19:46:43.748Z,3.20
2022-10-19T19:49:11.895Z,3.10
2022-10-19T19:51:39.815Z,3.00
2022-10-19T19:54:07.574Z,3.70
2022-10-19T19:56:37.446Z,3.60
2022-10-19T19:59:05.344Z,4.70
2022-10-19T20:01:33.508Z,4.30
2022-10-19T20:06:36.800Z,2.60
2022-10-19T20:09:05.938Z,2.30
2022-10-19T20:11:36.170Z,2.80
2022-10-19T20:14:08.960Z,2.50
2022-10-19T20:16:37.061Z,2.60
2022-10-19T20:19:08.791Z,3.50
2022-10-19T20:21:36.500Z,3.80
2022-10-19T20:24:05.042Z,4.70
2022-10-19T20:26:33.045Z,5.10
2022-10-19T20:29:02.499Z,5.77
2022-10-19T20:31:33.413Z,4.80
2022-10-19T20:34:01.496Z,5.70
2022-10-19T20:36:29.199Z,7.60
2022-10-19T20:38:58.751Z,8.90
2022-10-19T20:41:28.949Z,7.97
2022-10-19T20:43:57.675Z,8.70
2022-10-19T20:46:27.320Z,9.47
2022-10-19T20:48:57.914Z,10.20
2022-10-19T20:51:30.853Z,12.97
2022-10-19T20:54:02.024Z,13.00
2022-10-19T20:56:32.002Z,11.57
2022-10-19T21:01:36.313Z,7.40
2022-10-19T21:04:07.022Z,7.50
2022-10-19T21:06:38.127Z,7.60
2022-10-19T21:09:06.403Z,7.43
2022-10-19T21:11:36.708Z,7.27
2022-10-19T21:14:06.200Z,5.97
2022-10-19T21:16:35.274Z,6.00
2022-10-19T21:19:05.666Z,4.77
2022-10-19T21:21:35.216Z,3.80
2022-10-19T21:24:05.375Z,3.40
2022-10-19T21:26:34.830Z,3.23
2022-10-19T21:29:03.612Z,3.07
2022-10-19T21:31:32.018Z,2.67
2022-10-19T21:33:59.810Z,2.70
2022-10-19T21:36:28.930Z,2.67
2022-10-19T21:38:57.304Z,2.73
2022-10-19T21:41:26.424Z,2.10
2022-10-19T21:43:54.869Z,2.00
2022-10-19T21:46:23.807Z,2.10
2022-10-19T21:48:52.150Z,2.10
2022-10-19T21:51:24.777Z,2.53
2022-10-19T21:53:54.766Z,2.23
2022-10-19T21:56:22.546Z,2.20
2022-10-19T21:58:52.294Z,2.90
2022-10-19T22:01:22.678Z,3.20
2022-10-19T22:03:50.489Z,3.60
2022-10-19T22:06:18.319Z,3.50
2022-10-19T22:08:48.995Z,4.60
2022-10-19T22:11:18.078Z,4.50
2022-10-19T22:13:45.750Z,4.90
2022-10-19T22:16:15.867Z,3.80
2022-10-19T22:18:44.145Z,3.20
2022-10-19T22:21:14.285Z,2.53
2022-10-19T22:23:42.932Z,2.33
2022-10-19T22:26:15.569Z,2.47
2022-10-19T22:28:45.275Z,2.20
2022-10-19T22:31:14.146Z,2.50
2022-10-19T22:33:41.898Z,3.13
2022-10-19T22:36:13.042Z,2.70
2022-10-19T22:38:41.868Z,2.77
2022-10-19T22:41:09.856Z,2.50
2022-10-19T22:43:37.712Z,2.77
2022-10-19T22:46:06.736Z,3.20
2022-10-19T22:48:34.782Z,3.27
2022-10-19T22:51:02.574Z,2.93
2022-10-19T22:53:30.285Z,2.90
2022-10-19T22:55:58.062Z,2.70
2022-10-19T22:58:25.808Z,3.47
2022-10-19T23:01:01.721Z,3.07
2022-10-19T23:03:30.860Z,3.40
2022-10-19T23:05:58.653Z,2.87
2022-10-19T23:08:26.836Z,3.37
2022-10-19T23:10:54.677Z,3.00
2022-10-19T23:13:22.710Z,2.90
2022-10-19T23:15:50.766Z,3.07
2022-10-19T23:18:19.344Z,3.00
2022-10-19T23:20:55.552Z,3.33
2022-10-19T23:23:23.747Z,3.73
2022-10-19T23:25:59.370Z,3.50
2022-10-19T23:28:27.117Z,3.47
2022-10-19T23:30:56.155Z,3.50
2022-10-19T23:33:23.910Z,3.30
2022-10-19T23:35:51.601Z,3.37
2022-10-19T23:38:20.669Z,3.40
2022-10-19T23:40:48.323Z,3.30
2022-10-19T23:43:15.936Z,3.33
2022-10-19T23:45:46.208Z,3.63
2022-10-19T23:48:13.888Z,3.90
2022-10-19T23:50:41.640Z,3.30
2022-10-19T23:53:09.381Z,3.23
2022-10-19T23:55:38.709Z,3.83
2022-10-19T23:58:06.497Z,3.43
